Time;durP1;ratioP1;P1;durP2;ratioP2;P2;SDS_P1;SDS_P2;PMS_P1;PMS_P2;Temp;Humidity;BMP_temperature;BMP_pressure;BME280_temperature;BME280_humidity;BME280_pressure;Samples;Min_cycle;Max_cycle;Signal;HPM_P1;HPM_P2
2021/12/01 00:02:08;;;;;;;3.70;1.20;;;;;;;8.66;90.21;98545.59;5057173;28;20078;-64
2021/12/01 00:04:33;;;;;;;2.60;1.10;;;;;;;8.61;89.75;98530.13;5056181;28;20048;-65
2021/12/01 00:06:58;;;;;;;2.50;1.20;;;;;;;8.57;88.74;98529.06;5056894;28;20376;-65
2021/12/01 00:09:24;;;;;;;2.25;0.82;;;;;;;8.63;89.97;98525.22;5056946;28;20693;-68
2021/12/01 00:11:49;;;;;;;3.40;0.90;;;;;;;8.52;89.19;98527.16;5056580;28;20048;-66
2021/12/01 00:14:14;;;;;;;1.70;0.82;;;;;;;8.36;89.96;98525.66;5055980;28;20051;-65
2021/12/01 00:16:40;;;;;;;2.55;1.20;;;;;;;8.29;90.77;98515.91;5056059;28;20025;-65
2021/12/01 00:19:05;;;;;;;5.20;1.15;;;;;;;8.50;90.22;98513.03;5071728;28;20040;-65
2021/12/01 00:21:30;;;;;;;2.97;1.37;;;;;;;8.31;90.83;98509.38;5057114;28;20020;-64
2021/12/01 00:23:56;;;;;;;3.80;1.60;;;;;;;8.13;91.39;98501.59;5056842;28;21122;-65
2021/12/01 00:26:21;;;;;;;5.38;1.85;;;;;;;8.02;91.50;98492.69;5056542;28;20040;-65
2021/12/01 00:28:46;;;;;;;4.35;2.33;;;;;;;8.02;91.82;98506.25;5055967;28;20081;-65
2021/12/01 00:31:12;;;;;;;4.75;1.98;;;;;;;8.03;91.78;98507.88;5055972;28;20177;-65
2021/12/01 00:33:39;;;;;;;3.92;2.20;;;;;;;8.18;91.07;98501.56;5056439;28;20511;-65
2021/12/01 00:36:05;;;;;;;4.18;2.42;;;;;;;7.92;92.27;98498.16;5055843;28;20974;-64
2021/12/01 00:38:30;;;;;;;5.97;2.65;;;;;;;7.97;91.66;98479.16;5056468;28;20044;-64
2021/12/01 00:40:56;;;;;;;4.60;2.10;;;;;;;8.06;91.59;98474.75;5058014;28;20439;-63
2021/12/01 00:43:24;;;;;;;4.22;2.10;;;;;;;8.13;91.32;98460.06;5057886;28;20093;-64
2021/12/01 00:45:56;;;;;;;5.80;2.35;;;;;;;7.86;92.58;98477.56;5057702;28;20025;-64
2021/12/01 00:48:23;;;;;;;5.55;2.80;;;;;;;7.89;92.35;98479.72;5056837;28;20917;-64
2021/12/01 00:50:49;;;;;;;4.97;2.58;;;;;;;7.97;92.79;98443.03;5053425;28;20051;-65
2021/12/01 00:53:14;;;;;;;2.95;1.48;;;;;;;8.03;92.25;98447.34;5057124;28;20035;-63
2021/12/01 00:55:42;;;;;;;4.95;1.90;;;;;;;8.07;92.25;98451.13;5055661;28;20035;-65
2021/12/01 00:58:08;;;;;;;3.63;2.03;;;;;;;7.82;92.72;98461.03;5056058;28;20029;-65
2021/12/01 01:00:34;;;;;;;5.20;2.38;;;;;;;7.94;92.12;98442.50;5056485;28;20349;-64
2021/12/01 01:02:59;;;;;;;5.38;2.58;;;;;;;7.82;92.16;98432.00;5055346;28;20600;-65
2021/12/01 01:05:25;;;;;;;5.43;2.30;;;;;;;8.16;91.29;98444.00;5055306;28;20037;-65
2021/12/01 01:07:51;;;;;;;5.63;2.80;;;;;;;7.81;92.06;98424.13;5055674;28;20312;-65
2021/12/01 01:10:29;;;;;;;5.53;2.75;;;;;;;7.94;91.37;98417.28;5056435;28;20025;-65
2021/12/01 01:18:30;;;;;;;5.45;2.63;;;;;;;7.80;91.66;98407.03;5055548;28;20106;-65
2021/12/01 01:20:55;;;;;;;3.67;2.10;;;;;;;7.74;92.04;98405.44;5055300;28;20056;-65
2021/12/01 01:23:21;;;;;;;3.50;1.92;;;;;;;7.82;91.30;98398.63;5057570;28;20200;-64
2021/12/01 01:25:46;;;;;;;4.38;2.50;;;;;;;8.03;90.29;98396.56;5058804;28;20677;-65
2021/12/01 01:28:12;;;;;;;5.25;2.17;;;;;;;7.82;91.37;98398.63;5058743;28;20024;-65
2021/12/01 01:30:37;;;;;;;5.25;2.42;;;;;;;7.87;91.17;98395.84;5059542;28;20052;-64
2021/12/01 01:33:02;;;;;;;3.83;1.92;;;;;;;7.83;90.82;98379.34;5058793;28;20415;-65
2021/12/01 01:35:28;;;;;;;4.32;2.17;;;;;;;7.96;90.23;98374.38;5059319;28;20415;-64
2021/12/01 01:37:53;;;;;;;5.72;2.92;;;;;;;8.10;89.66;98371.03;5059420;28;20549;-65
2021/12/01 01:40:19;;;;;;;6.15;3.20;;;;;;;8.00;89.72;98364.59;5059173;28;20094;-65
2021/12/01 01:42:45;;;;;;;4.57;2.25;;;;;;;7.97;90.45;98365.16;5059644;28;20039;-65
2021/12/01 01:45:11;;;;;;;4.25;1.92;;;;;;;7.75;90.89;98355.50;5074818;28;20792;-64
2021/12/01 01:47:46;;;;;;;5.85;3.15;;;;;;;7.78;90.63;98346.81;5059149;28;20032;-64
2021/12/01 01:50:27;;;;;;;4.97;2.50;;;;;;;7.90;90.62;98348.38;5059032;28;20028;-63
2021/12/01 01:52:53;;;;;;;10.25;3.15;;;;;;;7.89;90.18;98341.31;5059028;28;20486;-64
2021/12/01 01:55:18;;;;;;;7.95;3.58;;;;;;;8.03;90.10;98331.44;5059483;28;20070;-64
2021/12/01 01:57:44;;;;;;;13.18;2.72;;;;;;;7.82;90.52;98341.63;5058954;28;20032;-64
2021/12/01 02:00:10;;;;;;;7.40;3.58;;;;;;;7.83;90.08;98327.78;5058508;28;20883;-64
2021/12/01 02:02:35;;;;;;;5.55;2.67;;;;;;;7.75;90.38;98317.50;5058829;28;20111;-64
2021/12/01 02:05:01;;;;;;;4.68;2.47;;;;;;;7.95;90.04;98313.06;5058415;28;20034;-64
2021/12/01 02:07:26;;;;;;;4.55;2.38;;;;;;;7.76;90.17;98305.59;5058900;28;20059;-63
2021/12/01 02:09:52;;;;;;;5.18;2.95;;;;;;;7.87;90.51;98313.66;5058881;28;20150;-64
2021/12/01 02:12:17;;;;;;;5.20;2.47;;;;;;;7.78;90.70;98297.97;5059236;28;20025;-64
2021/12/01 02:14:42;;;;;;;4.78;2.63;;;;;;;8.05;90.05;98296.66;5059965;28;20032;-64
2021/12/01 02:17:08;;;;;;;8.43;2.28;;;;;;;7.70;89.84;98269.56;5060557;28;21250;-65
2021/12/01 02:19:37;;;;;;;3.85;2.08;;;;;;;7.61;90.10;98286.72;5060605;28;20383;-64
2021/12/01 02:22:03;;;;;;;8.20;2.08;;;;;;;7.72;89.87;98277.41;5060158;28;20072;-65
2021/12/01 02:24:28;;;;;;;4.13;1.70;;;;;;;7.70;89.47;98261.41;5058989;28;20131;-65
2021/12/01 02:26:54;;;;;;;7.28;2.70;;;;;;;7.67;89.29;98251.09;5059652;28;20039;-65
2021/12/01 02:29:23;;;;;;;3.55;1.80;;;;;;;7.76;88.69;98256.75;5059441;28;20031;-64
2021/12/01 02:31:50;;;;;;;4.53;1.40;;;;;;;7.80;87.96;98252.38;5059241;28;20048;-64
2021/12/01 02:34:18;;;;;;;3.08;1.70;;;;;;;7.57;88.80;98230.28;5059169;28;20028;-64
2021/12/01 02:36:47;;;;;;;3.25;1.77;;;;;;;7.65;88.90;98228.06;5059387;28;20070;-65
2021/12/01 02:39:15;;;;;;;4.93;2.15;;;;;;;7.71;88.75;98232.34;5058767;28;20036;-64
2021/12/01 02:41:42;;;;;;;4.88;2.03;;;;;;;7.70;88.70;98217.19;5074563;28;20032;-63
2021/12/01 02:44:08;;;;;;;4.70;1.98;;;;;;;7.74;87.89;98226.38;5058781;28;20403;-63
2021/12/01 02:46:34;;;;;;;5.90;2.45;;;;;;;7.74;87.78;98236.41;5058610;28;20039;-64
2021/12/01 02:49:00;;;;;;;14.73;3.00;;;;;;;7.69;87.87;98210.13;5059213;28;20037;-64
2021/12/01 02:51:31;;;;;;;5.07;2.15;;;;;;;7.78;87.82;98208.44;5058441;28;20560;-64
2021/12/01 02:53:57;;;;;;;5.05;1.85;;;;;;;7.68;87.48;98205.81;5059299;28;20035;-64
2021/12/01 02:56:23;;;;;;;5.70;2.40;;;;;;;7.68;87.69;98208.53;5058475;28;20029;-64
2021/12/01 02:58:49;;;;;;;6.50;3.72;;;;;;;7.88;86.68;98193.16;5059128;28;20035;-64
2021/12/01 03:01:20;;;;;;;5.78;2.70;;;;;;;7.98;86.06;98192.25;5058942;28;20102;-64
2021/12/01 03:03:47;;;;;;;6.28;3.13;;;;;;;7.87;86.87;98196.97;5059004;28;20028;-64
2021/12/01 03:06:12;;;;;;;6.05;2.60;;;;;;;7.78;86.65;98200.31;5058628;28;20068;-62
2021/12/01 03:08:41;;;;;;;6.60;3.08;;;;;;;7.72;87.04;98182.44;5058503;28;20115;-65
2021/12/01 03:11:06;;;;;;;6.72;3.88;;;;;;;8.16;85.82;98180.66;5058653;28;20675;-64
2021/12/01 03:13:32;;;;;;;4.72;2.75;;;;;;;8.05;86.14;98188.09;5057971;28;20154;-64
2021/12/01 03:15:58;;;;;;;7.82;3.88;;;;;;;7.71;86.49;98180.81;5058715;28;20340;-64
2021/12/01 03:18:24;;;;;;;7.50;3.80;;;;;;;7.74;86.99;98174.84;5058556;28;20518;-64
2021/12/01 03:20:51;;;;;;;5.75;3.00;;;;;;;7.81;86.10;98158.22;5059115;28;20032;-64
2021/12/01 03:24:17;;;;;;;8.05;4.70;;;;;;;7.65;86.77;98146.69;5073112;27;1205983;-64
2021/12/01 03:26:42;;;;;;;8.85;3.88;;;;;;;7.75;86.52;98151.25;5094564;28;20031;-65
2021/12/01 03:29:09;;;;;;;6.72;3.20;;;;;;;7.50;87.48;98155.78;5093336;28;20031;-62
2021/12/01 03:31:34;;;;;;;6.05;3.33;;;;;;;7.40;87.35;98134.97;5095987;28;20498;-64
2021/12/01 03:33:59;;;;;;;9.98;4.95;;;;;;;7.34;87.54;98135.00;5092777;28;20032;-64
2021/12/01 03:36:25;;;;;;;9.63;4.28;;;;;;;7.75;86.49;98130.31;5094803;28;20841;-64
2021/12/01 03:38:50;;;;;;;8.70;4.05;;;;;;;7.50;87.01;98139.50;5093312;28;20077;-64
2021/12/01 03:41:15;;;;;;;7.93;4.35;;;;;;;7.53;87.10;98141.63;5095156;28;20035;-64
2021/12/01 03:43:40;;;;;;;5.97;3.65;;;;;;;7.51;86.85;98125.66;5092345;28;20047;-65
2021/12/01 03:46:06;;;;;;;8.70;4.13;;;;;;;7.69;86.66;98126.03;5094481;28;20039;-64
2021/12/01 03:48:32;;;;;;;7.63;4.53;;;;;;;7.56;86.51;98122.09;5094557;28;20034;-64
2021/12/01 03:50:59;;;;;;;9.10;5.00;;;;;;;7.57;86.54;98113.66;5092532;28;20016;-64
2021/12/01 03:53:24;;;;;;;9.65;5.65;;;;;;;7.31;87.10;98110.38;5094157;28;20397;-64
2021/12/01 03:55:50;;;;;;;12.43;4.80;;;;;;;7.35;87.66;98111.41;5092659;28;20049;-64
2021/12/01 03:58:16;;;;;;;9.75;4.18;;;;;;;7.25;87.85;98101.47;5093655;28;20028;-65
2021/12/01 04:00:42;;;;;;;9.57;4.47;;;;;;;7.24;88.50;98092.53;5092203;28;20131;-64
2021/12/01 04:03:07;;;;;;;10.25;4.53;;;;;;;7.34;87.57;98105.19;5094449;28;20180;-64
2021/12/01 04:05:33;;;;;;;13.07;5.40;;;;;;;7.29;87.98;98085.44;5093334;28;20032;-64
2021/12/01 04:08:01;;;;;;;17.00;5.95;;;;;;;7.19;88.12;98086.34;5092601;27;20028;-65
2021/12/01 04:10:27;;;;;;;12.02;6.38;;;;;;;7.11;87.99;98053.34;5095055;28;20032;-64
2021/12/01 04:12:53;;;;;;;9.90;5.85;;;;;;;7.09;88.47;98070.97;5091336;28;20023;-65
2021/12/01 04:15:18;;;;;;;13.53;5.77;;;;;;;6.99;88.91;98044.78;5094797;28;21036;-64
2021/12/01 04:17:44;;;;;;;12.23;5.53;;;;;;;7.00;89.43;98054.50;5092077;28;20256;-64
2021/12/01 04:20:12;;;;;;;11.20;6.53;;;;;;;6.92;90.19;98046.97;5093654;28;20054;-64
2021/12/01 04:22:38;;;;;;;9.85;4.95;;;;;;;6.89;89.88;98041.03;5093242;28;20055;-65
2021/12/01 04:25:05;;;;;;;10.13;5.20;;;;;;;7.10;89.63;98026.50;5093072;28;20027;-64
2021/12/01 04:27:30;;;;;;;11.50;5.78;;;;;;;7.08;88.75;98029.50;5074754;28;20036;-65
2021/12/01 04:29:56;;;;;;;9.88;6.53;;;;;;;7.02;89.23;98019.00;5091267;28;20042;-64
2021/12/01 04:32:21;;;;;;;8.82;4.45;;;;;;;7.03;88.51;98026.84;5093732;28;20062;-63
2021/12/01 04:34:47;;;;;;;9.90;4.68;;;;;;;6.88;89.07;97998.78;5083449;28;20085;-65
2021/12/01 04:37:12;;;;;;;12.30;5.38;;;;;;;6.92;88.87;98003.63;5080440;28;20056;-64
2021/12/01 04:39:38;;;;;;;8.73;4.82;;;;;;;6.85;88.31;97991.25;5078589;28;20035;-64
2021/12/01 04:42:05;;;;;;;9.00;5.30;;;;;;;6.99;88.56;97979.72;5079785;28;20146;-64
2021/12/01 04:44:33;;;;;;;12.38;5.82;;;;;;;7.01;88.04;97988.38;5078690;28;20036;-64
2021/12/01 04:47:02;;;;;;;10.60;6.13;;;;;;;7.02;88.23;97978.38;5078394;28;20055;-64
2021/12/01 04:49:28;;;;;;;9.13;5.80;;;;;;;7.04;87.88;97979.69;5080017;28;20036;-64
2021/12/01 04:51:56;;;;;;;8.85;4.93;;;;;;;7.06;87.66;97987.53;5077865;28;20111;-64
2021/12/01 04:54:23;;;;;;;8.13;5.60;;;;;;;6.98;87.98;97987.06;5079521;28;20101;-64
2021/12/01 04:56:49;;;;;;;8.70;5.00;;;;;;;7.12;86.58;97984.47;5077834;28;20040;-63
2021/12/01 04:59:16;;;;;;;11.55;5.38;;;;;;;7.29;86.48;97980.53;5078965;28;20394;-64
2021/12/01 05:01:42;;;;;;;10.95;6.18;;;;;;;7.05;86.25;97964.22;5078868;28;20166;-64
2021/12/01 05:04:08;;;;;;;9.93;5.47;;;;;;;7.00;87.13;97975.91;5078554;28;20028;-64
2021/12/01 05:06:34;;;;;;;10.35;5.63;;;;;;;7.03;86.31;97969.13;5079631;28;20097;-65
2021/12/01 05:08:59;;;;;;;7.30;3.80;;;;;;;7.10;86.03;97943.31;5077659;28;20099;-65
2021/12/01 05:11:25;;;;;;;7.20;4.53;;;;;;;7.05;85.55;97937.13;5078918;28;20020;-65
2021/12/01 05:13:51;;;;;;;8.93;4.70;;;;;;;7.07;85.78;97949.31;5077196;28;20032;-64
2021/12/01 05:16:16;;;;;;;13.50;5.05;;;;;;;7.25;85.47;97946.97;5079256;28;20415;-64
2021/12/01 05:18:41;;;;;;;7.25;4.03;;;;;;;7.07;85.47;97922.22;5077944;28;20070;-64
2021/12/01 05:21:07;;;;;;;8.35;4.97;;;;;;;7.04;85.38;97909.22;5078508;28;20688;-64
2021/12/01 05:23:32;;;;;;;8.00;3.92;;;;;;;7.10;85.23;97908.06;5078676;28;20113;-64
2021/12/01 05:25:58;;;;;;;6.90;2.75;;;;;;;7.04;84.25;97890.25;5058526;28;20032;-64
2021/12/01 05:28:23;;;;;;;5.60;2.90;;;;;;;7.08;84.41;97875.03;5078507;28;20224;-64
2021/12/01 05:30:49;;;;;;;7.90;3.47;;;;;;;7.11;84.39;97877.19;5077628;28;20031;-64
2021/12/01 05:33:15;;;;;;;5.97;3.10;;;;;;;7.21;83.74;97884.38;5078690;28;20029;-65
2021/12/01 05:35:42;;;;;;;5.50;2.40;;;;;;;7.19;84.16;97870.31;5077291;28;20027;-65
2021/12/01 05:38:08;;;;;;;4.35;2.20;;;;;;;7.10;84.40;97856.59;5078486;28;20086;-65
2021/12/01 05:40:50;;;;;;;5.95;3.17;;;;;;;7.26;83.77;97839.34;5058288;28;20033;-64
2021/12/01 05:43:16;;;;;;;6.85;2.80;;;;;;;7.14;84.16;97835.13;5056785;28;20036;-64
2021/12/01 05:45:41;;;;;;;4.40;2.45;;;;;;;7.07;84.07;97819.25;5057934;28;20099;-63
2021/12/01 05:48:06;;;;;;;6.78;2.83;;;;;;;7.11;84.32;97804.00;5056581;28;20048;-65
2021/12/01 05:50:32;;;;;;;7.28;4.15;;;;;;;7.18;84.32;97816.41;5058553;28;20040;-65
2021/12/01 05:52:57;;;;;;;6.55;3.25;;;;;;;7.07;84.16;97816.53;5057020;28;20044;-64
2021/12/01 05:55:23;;;;;;;6.75;3.40;;;;;;;7.08;83.64;97810.00;5057992;28;20513;-64
2021/12/01 05:57:48;;;;;;;7.15;3.30;;;;;;;6.98;84.21;97796.56;5057846;28;20031;-65
2021/12/01 06:00:14;;;;;;;7.03;3.40;;;;;;;6.96;83.37;97782.50;5056439;28;20035;-64
2021/12/01 06:02:42;;;;;;;7.15;3.25;;;;;;;7.07;83.40;97775.88;5058397;28;20029;-64
2021/12/01 06:05:08;;;;;;;6.05;3.00;;;;;;;7.22;83.06;97755.88;5056094;28;20047;-64
2021/12/01 06:07:33;;;;;;;7.25;3.72;;;;;;;6.89;83.84;97759.28;5039382;28;20020;-64
2021/12/01 06:10:01;;;;;;;7.15;3.75;;;;;;;6.96;83.72;97753.50;5055651;28;20024;-65
2021/12/01 06:12:28;;;;;;;4.97;2.83;;;;;;;6.86;84.34;97738.19;5058048;28;20090;-64
2021/12/01 06:14:54;;;;;;;6.38;3.55;;;;;;;6.86;84.51;97738.19;5057174;28;20502;-64
2021/12/01 06:17:20;;;;;;;7.72;3.15;;;;;;;6.76;84.76;97738.31;5056610;28;20529;-64
2021/12/01 06:19:45;;;;;;;7.40;3.45;;;;;;;6.77;84.83;97729.91;5058487;28;20031;-63
2021/12/01 06:22:10;;;;;;;5.45;3.42;;;;;;;6.80;84.81;97725.81;5056023;28;20028;-64
2021/12/01 06:24:36;;;;;;;7.40;3.20;;;;;;;6.79;85.18;97721.50;5057521;28;20547;-63
2021/12/01 06:27:02;;;;;;;6.95;2.95;;;;;;;6.74;84.79;97724.25;5055297;28;20037;-64
2021/12/01 06:29:27;;;;;;;8.05;3.85;;;;;;;6.77;85.51;97718.28;5056946;28;20039;-64
2021/12/01 06:31:52;;;;;;;6.82;3.20;;;;;;;6.60;86.08;97711.44;5056400;28;20036;-64
2021/12/01 06:34:17;;;;;;;9.23;4.35;;;;;;;6.60;86.30;97724.16;5057369;28;20486;-64
2021/12/01 06:36:43;;;;;;;7.03;3.22;;;;;;;6.64;86.94;97712.47;5057630;28;20086;-64
2021/12/01 06:39:09;;;;;;;8.25;2.83;;;;;;;6.47;87.25;97695.88;5055622;28;20618;-64
2021/12/01 06:41:34;;;;;;;11.18;3.65;;;;;;;6.55;87.63;97687.09;5057669;28;20032;-63
2021/12/01 06:44:00;;;;;;;6.18;3.08;;;;;;;6.37;87.41;97700.31;5055449;28;21003;-64
2021/12/01 06:46:28;;;;;;;5.72;2.75;;;;;;;6.54;87.70;97682.78;5057727;28;20028;-64
2021/12/01 06:48:53;;;;;;;7.22;2.33;;;;;;;6.51;87.76;97681.47;5055911;28;20028;-64
2021/12/01 06:51:19;;;;;;;5.78;2.80;;;;;;;6.34;88.66;97663.00;5057346;28;20353;-64
2021/12/01 06:53:44;;;;;;;6.38;3.03;;;;;;;6.44;89.36;97691.03;5056635;28;20044;-64
2021/12/01 06:56:09;;;;;;;11.98;2.90;;;;;;;6.34;89.22;97673.00;5056269;28;20338;-65
2021/12/01 06:58:36;;;;;;;6.70;3.58;;;;;;;6.29;89.54;97666.56;5056436;28;20115;-64
2021/12/01 07:01:04;;;;;;;7.53;3.92;;;;;;;6.38;89.66;97661.31;5054626;28;20028;-64
2021/12/01 07:03:30;;;;;;;6.82;3.33;;;;;;;6.33;89.58;97657.84;5057617;28;20033;-65
2021/12/01 07:05:55;;;;;;;4.38;2.42;;;;;;;6.33;90.01;97649.72;5055324;28;20031;-64
2021/12/01 07:08:20;;;;;;;7.53;3.63;;;;;;;6.21;90.77;97650.94;5057353;28;20025;-65
2021/12/01 07:10:46;;;;;;;8.27;2.78;;;;;;;6.17;90.72;97648.03;5055807;28;20029;-65
2021/12/01 07:13:11;;;;;;;6.85;2.20;;;;;;;6.23;90.86;97645.25;5055986;28;20107;-65
2021/12/01 07:15:36;;;;;;;4.32;2.55;;;;;;;6.15;91.49;97633.97;5057270;28;20384;-65
2021/12/01 07:18:02;;;;;;;5.47;3.10;;;;;;;6.04;91.72;97629.75;5055123;28;20032;-64
2021/12/01 07:20:27;;;;;;;7.13;3.17;;;;;;;6.07;91.59;97631.88;5057107;28;20035;-64
2021/12/01 07:22:52;;;;;;;5.63;2.75;;;;;;;6.07;91.58;97634.59;5055179;28;20059;-64
2021/12/01 07:25:18;;;;;;;6.03;2.67;;;;;;;6.23;92.02;97635.22;5056823;28;20499;-64
2021/12/01 07:27:43;;;;;;;11.02;3.35;;;;;;;6.08;91.27;97625.41;5054894;28;20028;-64
2021/12/01 07:30:09;;;;;;;6.70;3.30;;;;;;;6.12;92.17;97614.81;5057275;28;20025;-64
2021/12/01 07:32:35;;;;;;;4.45;2.35;;;;;;;6.23;91.86;97612.78;5055808;28;20390;-66
2021/12/01 07:35:00;;;;;;;4.57;2.33;;;;;;;6.10;92.17;97606.16;5054575;28;20047;-64
2021/12/01 07:37:25;;;;;;;5.30;2.65;;;;;;;6.21;92.19;97609.53;5057274;28;20021;-64
2021/12/01 07:39:52;;;;;;;4.97;2.88;;;;;;;6.23;91.40;97596.53;5054644;28;20052;-63
2021/12/01 07:42:18;;;;;;;6.30;2.70;;;;;;;6.20;91.28;97597.94;5055395;28;20032;-64
2021/12/01 07:44:43;;;;;;;5.85;2.78;;;;;;;6.16;92.01;97605.03;5054299;28;20029;-65
2021/12/01 07:47:10;;;;;;;4.55;2.10;;;;;;;6.17;92.02;97595.78;5056311;28;20034;-64
2021/12/01 07:49:35;;;;;;;5.75;2.28;;;;;;;6.23;91.36;97596.53;5055437;28;20079;-65
2021/12/01 07:52:03;;;;;;;4.80;2.10;;;;;;;6.12;91.89;97596.66;5056157;28;20567;-64
2021/12/01 07:54:29;;;;;;;2.70;1.50;;;;;;;6.08;91.83;97571.28;5055919;28;20047;-64
2021/12/01 07:56:54;;;;;;;6.07;2.40;;;;;;;6.19;92.16;97585.50;5053925;28;20017;-64
2021/12/01 07:59:20;;;;;;;2.88;1.98;;;;;;;6.28;92.01;97578.34;5055209;28;20029;-65
2021/12/01 08:01:45;;;;;;;3.83;1.85;;;;;;;6.22;92.44;97579.50;5053581;28;20217;-63
2021/12/01 08:04:12;;;;;;;3.25;1.70;;;;;;;6.28;91.66;97577.53;5055761;28;20879;-63
2021/12/01 08:06:39;;;;;;;4.10;2.45;;;;;;;6.21;91.84;97586.00;5053660;28;20085;-66
2021/12/01 08:09:05;;;;;;;3.03;1.65;;;;;;;6.17;92.45;97563.31;5056761;28;20562;-66
2021/12/01 08:11:31;;;;;;;4.90;2.53;;;;;;;6.42;91.80;97569.50;5058342;28;20461;-65
2021/12/01 08:13:57;;;;;;;5.97;1.88;;;;;;;6.35;91.76;97564.44;5056714;28;20107;-65
2021/12/01 08:16:22;;;;;;;3.97;1.80;;;;;;;6.22;92.35;97562.47;5058693;28;20040;-66
2021/12/01 08:18:51;;;;;;;4.18;1.45;;;;;;;6.47;91.49;97571.34;5056529;28;20063;-64
2021/12/01 08:21:21;;;;;;;5.32;1.50;;;;;;;6.44;91.51;97580.03;5058846;28;20486;-65
2021/12/01 08:23:46;;;;;;;3.72;1.83;;;;;;;6.47;91.31;97560.53;5055251;28;20067;-65
2021/12/01 08:26:12;;;;;;;2.85;1.58;;;;;;;6.42;91.26;97562.19;5058096;28;20033;-65
2021/12/01 08:28:37;;;;;;;2.80;1.00;;;;;;;6.41;91.18;97548.94;5057472;28;20602;-65
2021/12/01 08:31:02;;;;;;;2.22;1.20;;;;;;;6.47;91.48;97552.41;5056545;28;20127;-65
2021/12/01 08:33:28;;;;;;;3.67;1.10;;;;;;;6.50;91.40;97554.50;5058250;28;20020;-64
2021/12/01 08:35:53;;;;;;;3.50;1.60;;;;;;;6.34;91.86;97546.63;5055688;28;20035;-64
2021/12/01 08:38:18;;;;;;;2.67;1.42;;;;;;;6.37;92.57;97553.31;5057952;28;20035;-64
2021/12/01 08:40:44;;;;;;;3.55;1.40;;;;;;;6.37;92.45;97546.03;5055222;28;20028;-64
2021/12/01 08:43:09;;;;;;;2.42;1.23;;;;;;;6.38;92.66;97544.13;5056691;28;20043;-65
2021/12/01 08:45:35;;;;;;;2.67;1.20;;;;;;;6.46;92.32;97550.78;5056083;28;20024;-65
2021/12/01 08:48:03;;;;;;;3.28;0.80;;;;;;;6.64;92.29;97550.00;5055928;28;20573;-64
2021/12/01 08:50:29;;;;;;;2.38;1.42;;;;;;;6.41;92.96;97548.94;5058510;28;20040;-65
2021/12/01 08:52:54;;;;;;;3.33;1.38;;;;;;;6.48;92.78;97532.34;5056057;28;20495;-65
2021/12/01 08:55:23;;;;;;;2.28;0.90;;;;;;;6.62;92.17;97527.81;5055632;28;20048;-66
2021/12/01 08:57:49;;;;;;;2.45;1.33;;;;;;;6.56;92.69;97525.47;5054639;28;20098;-65
2021/12/01 09:00:15;;;;;;;2.90;1.30;;;;;;;6.68;92.06;97533.13;5056495;28;20025;-65
2021/12/01 09:02:40;;;;;;;2.35;1.10;;;;;;;6.70;91.64;97512.81;5055285;28;20028;-66
2021/12/01 09:05:06;;;;;;;4.57;1.67;;;;;;;6.72;92.15;97505.19;5057315;28;20344;-65
2021/12/01 09:07:31;;;;;;;3.95;0.98;;;;;;;6.85;90.87;97509.06;5056853;28;20502;-64
2021/12/01 09:09:57;;;;;;;2.90;1.35;;;;;;;6.98;91.14;97510.19;5055887;28;20028;-63
2021/12/01 09:12:22;;;;;;;2.67;1.00;;;;;;;6.88;91.09;97500.31;5056994;28;20063;-64
2021/12/01 09:14:48;;;;;;;3.65;1.20;;;;;;;6.82;91.62;97512.34;5055879;28;20121;-64
2021/12/01 09:17:13;;;;;;;2.38;0.80;;;;;;;6.95;91.01;97499.16;5057842;28;20021;-66
2021/12/01 09:19:41;;;;;;;2.83;1.10;;;;;;;7.00;90.58;97505.28;5056062;28;20028;-65
2021/12/01 09:22:07;;;;;;;3.20;1.63;;;;;;;6.94;90.68;97501.03;5057556;28;20548;-66
2021/12/01 09:24:33;;;;;;;2.55;1.00;;;;;;;6.90;91.24;97494.59;5056939;28;20487;-65
2021/12/01 09:27:00;;;;;;;2.30;1.13;;;;;;;6.94;91.15;97492.09;5057049;28;20539;-65
2021/12/01 09:29:40;;;;;;;2.70;1.23;;;;;;;6.89;91.33;97491.09;5057745;28;20025;-66
2021/12/01 09:32:06;;;;;;;2.05;0.80;;;;;;;6.91;90.86;97490.81;5056370;28;20059;-65
2021/12/01 09:34:31;;;;;;;2.30;1.35;;;;;;;6.94;91.26;97483.97;5057888;28;20107;-65
2021/12/01 09:36:57;;;;;;;2.92;1.08;;;;;;;6.90;91.31;97486.47;5055845;28;20035;-64
2021/12/01 09:39:24;;;;;;;2.40;1.15;;;;;;;6.94;91.03;97473.13;5057141;28;20474;-65
2021/12/01 09:41:49;;;;;;;4.63;1.13;;;;;;;6.89;90.64;97472.13;5056878;28;20037;-65
2021/12/01 09:44:15;;;;;;;3.28;1.38;;;;;;;7.00;91.05;97471.97;5056265;28;20429;-65
2021/12/01 09:46:41;;;;;;;2.42;1.10;;;;;;;7.07;90.53;97461.56;5057505;28;20463;-65
2021/12/01 09:49:06;;;;;;;2.75;1.10;;;;;;;7.08;90.30;97455.00;5055464;28;20170;-65
2021/12/01 09:51:32;;;;;;;2.10;1.33;;;;;;;7.08;90.02;97451.50;5057210;28;20620;-65
2021/12/01 09:54:00;;;;;;;2.97;1.30;;;;;;;7.19;90.33;97462.97;5055330;28;20113;-64
2021/12/01 09:56:25;;;;;;;1.38;0.70;;;;;;;7.09;91.14;97463.97;5057075;28;20677;-65
2021/12/01 09:58:51;;;;;;;12.82;1.75;;;;;;;7.19;90.43;97474.63;5055301;28;20025;-66
2021/12/01 10:01:18;;;;;;;2.20;0.90;;;;;;;7.29;90.48;97467.41;5056627;28;20028;-65
2021/12/01 10:03:44;;;;;;;7.90;1.02;;;;;;;7.08;91.30;97457.72;5056287;28;20039;-65
2021/12/01 10:06:14;;;;;;;1.95;1.05;;;;;;;7.04;91.35;97455.94;5055377;28;20025;-65
2021/12/01 10:08:45;;;;;;;3.25;1.20;;;;;;;7.21;91.22;97460.75;5056828;28;20459;-65
2021/12/01 10:11:21;;;;;;;5.65;1.55;;;;;;;7.14;91.66;97446.81;5054948;28;20115;-66
2021/12/01 10:13:55;;;;;;;2.25;1.08;;;;;;;7.08;91.62;97436.06;5056743;28;21237;-65
2021/12/01 10:16:21;;;;;;;3.00;1.48;;;;;;;7.14;91.68;97435.97;5055576;28;20044;-66
2021/12/01 10:18:50;;;;;;;2.78;1.25;;;;;;;7.22;91.65;97432.56;5055826;28;20127;-65
2021/12/01 10:21:37;;;;;;;3.03;1.90;;;;;;;7.35;91.00;97442.63;5057542;28;20020;-65
2021/12/01 10:24:07;;;;;;;2.55;1.42;;;;;;;7.29;91.62;97430.25;5055875;28;20044;-65
2021/12/01 10:26:58;;;;;;;3.53;1.50;;;;;;;7.30;91.59;97418.28;5057862;28;20032;-65
2021/12/01 10:29:34;;;;;;;2.40;1.23;;;;;;;7.46;91.66;97421.50;5056128;28;20032;-65
2021/12/01 10:32:12;;;;;;;5.65;1.45;;;;;;;7.52;91.92;97414.09;5055348;28;20051;-69
2021/12/01 10:34:41;;;;;;;8.57;0.90;;;;;;;7.63;90.59;97411.97;5057875;28;21268;-65
2021/12/01 10:37:26;;;;;;;3.13;1.60;;;;;;;7.65;90.36;97403.53;5055439;28;20074;-64
2021/12/01 10:40:09;;;;;;;2.17;0.70;;;;;;;7.67;90.84;97414.88;5057353;28;20043;-64
2021/12/01 10:42:58;;;;;;;1.05;0.50;;;;;;;7.62;90.86;97410.38;5057127;28;20025;-64
2021/12/01 10:45:38;;;;;;;1.90;0.88;;;;;;;7.45;91.58;97422.63;5043968;28;20037;-65
2021/12/01 10:48:07;;;;;;;2.08;1.08;;;;;;;7.98;89.30;97408.78;5057223;28;20656;-64
2021/12/01 10:50:35;;;;;;;1.30;0.60;;;;;;;7.58;91.27;97399.34;5056162;28;20024;-65
2021/12/01 10:53:05;;;;;;;2.75;1.00;;;;;;;7.55;91.16;97388.28;5057315;28;20028;-64
2021/12/01 10:55:31;;;;;;;2.90;1.13;;;;;;;7.53;91.03;97388.56;5057117;28;20029;-65
2021/12/01 10:58:03;;;;;;;4.35;1.27;;;;;;;7.52;91.35;97383.47;5054964;28;20482;-65
2021/12/01 11:00:32;;;;;;;2.08;1.20;;;;;;;7.56;91.68;97377.13;5056497;28;20489;-65
2021/12/01 11:03:09;;;;;;;3.08;1.00;;;;;;;7.77;90.82;97367.75;5054532;28;20466;-64
2021/12/01 11:05:52;;;;;;;3.72;1.05;;;;;;;7.41;91.69;97382.84;5056530;28;20028;-65
2021/12/01 11:08:20;;;;;;;3.47;1.10;;;;;;;7.35;92.06;97366.72;5055932;28;20391;-65
2021/12/01 11:11:06;;;;;;;1.88;1.23;;;;;;;7.59;92.16;97362.97;5054777;28;20433;-65
2021/12/01 11:13:32;;;;;;;1.67;1.00;;;;;;;7.58;91.10;97360.56;5054860;28;20024;-64
2021/12/01 11:16:00;;;;;;;4.07;1.35;;;;;;;7.68;90.65;97354.91;5054802;28;20596;-65
2021/12/01 11:18:29;;;;;;;2.15;1.00;;;;;;;7.83;90.85;97356.47;5055427;28;20028;-63
2021/12/01 11:20:57;;;;;;;1.45;1.10;;;;;;;7.75;90.38;97359.13;5052050;28;20044;-66
2021/12/01 11:23:32;;;;;;;2.13;0.90;;;;;;;8.00;89.14;97349.59;5055137;28;20063;-65
2021/12/01 11:26:04;;;;;;;1.80;0.77;;;;;;;8.08;89.36;97334.50;5055606;28;20056;-65
2021/12/01 11:28:32;;;;;;;2.40;1.17;;;;;;;8.27;88.75;97337.03;5052798;28;20024;-64
2021/12/01 11:31:01;;;;;;;3.03;1.00;;;;;;;7.92;90.33;97332.16;5055959;28;20483;-65
2021/12/01 11:33:29;;;;;;;2.63;1.15;;;;;;;7.88;89.70;97331.16;5053769;28;20095;-65
2021/12/01 11:36:05;;;;;;;2.75;1.08;;;;;;;8.06;90.33;97318.53;5055553;28;20028;-66
2021/12/01 11:38:30;;;;;;;1.48;0.85;;;;;;;8.25;88.91;97324.88;5055770;28;20681;-65
2021/12/01 11:40:56;;;;;;;1.70;1.00;;;;;;;8.44;87.86;97330.09;5054437;28;20028;-66
2021/12/01 11:43:31;;;;;;;1.17;0.60;;;;;;;8.33;88.45;97313.28;5055249;28;20036;-64
2021/12/01 11:45:57;;;;;;;1.33;0.70;;;;;;;7.71;90.33;97323.66;5057282;28;20020;-64
2021/12/01 11:48:32;;;;;;;1.92;0.70;;;;;;;8.11;88.95;97322.22;5059669;28;20309;-64